Terminal Aerodrome Forecast
Issued by NWS

Home | Current Version | Previous Version | Text Only | Print | Product List | Glossary On
Versions: 1 2 3 4 5 6 7 8 9 10 11 12 13
000
FTUS42 KJAX 210500
TAFVQQ
TAF
KVQQ 210534Z 2106/2206 03004KT 5SM BR VCSH OVC005
     FM210800 01003KT 3SM BR VCSH OVC004
     FM211500 04004KT 4SM BR VCSH OVC007
     FM211800 03004KT 6SM BR VCSH SCT005 OVC010
     FM212300 03003KT 4SM -RA BR BKN006=

USA.gov is the U.S. government's official web portal to all federal, state and local government web resources and services.